Time;durP1;ratioP1;P1;durP2;ratioP2;P2;SDS_P1;SDS_P2;PMS_P1;PMS_P2;Temp;Humidity;BMP_temperature;BMP_pressure;BME280_temperature;BME280_humidity;BME280_pressure;Samples;Min_cycle;Max_cycle;Signal;HPM_P1;HPM_P2
2022/03/13 00:00:14;;;;;;;22.65;17.33;;;;;;;;;;5041437;28;20515;-87
2022/03/13 00:02:41;;;;;;;21.15;16.60;;;;;;;;;;5040614;28;20491;-86
2022/03/13 00:05:14;;;;;;;23.15;17.17;;;;;;;;;;5024839;28;20073;-86
2022/03/13 00:07:40;;;;;;;24.17;17.10;;;;;;;;;;5041611;28;20045;-86
2022/03/13 00:10:06;;;;;;;21.00;16.42;;;;;;;;;;5025107;28;20106;-85
2022/03/13 00:12:34;;;;;;;22.23;17.60;;;;;;;;;;5024510;28;20045;-84
2022/03/13 00:15:05;;;;;;;20.85;16.25;;;;;;;;;;5041058;28;20040;-85
2022/03/13 00:17:31;;;;;;;21.08;16.75;;;;;;;;;;5024880;28;20049;-85
2022/03/13 00:20:00;;;;;;;21.33;16.58;;;;;;;;;;5024587;28;20041;-86
2022/03/13 00:22:26;;;;;;;20.83;16.30;;;;;;;;;;5041219;28;20582;-86
2022/03/13 00:24:53;;;;;;;20.33;16.48;;;;;;;;;;5041155;28;20045;-85
2022/03/13 00:27:19;;;;;;;19.92;16.67;;;;;;;;;;5058575;28;20037;-85
2022/03/13 00:29:45;;;;;;;23.20;16.92;;;;;;;;;;5040707;28;20045;-85
2022/03/13 00:32:12;;;;;;;21.63;17.50;;;;;;;;;;5040247;28;20080;-86
2022/03/13 00:34:38;;;;;;;22.58;16.77;;;;;;;;;;5040667;28;20538;-86
2022/03/13 00:37:04;;;;;;;21.20;16.83;;;;;;;;;;5023973;28;20041;-85
2022/03/13 00:39:30;;;;;;;24.67;17.15;;;;;;;;;;5040610;28;20041;-86
2022/03/13 00:41:57;;;;;;;23.15;17.60;;;;;;;;;;5023885;28;20132;-86
2022/03/13 00:44:23;;;;;;;21.80;16.75;;;;;;;;;;5040310;28;20040;-85
2022/03/13 00:46:49;;;;;;;22.15;16.73;;;;;;;;;;5040781;28;20037;-85
2022/03/13 00:49:15;;;;;;;23.20;16.92;;;;;;;;;;5023906;28;20051;-85
2022/03/13 00:51:41;;;;;;;23.80;16.35;;;;;;;;;;5040620;28;20088;-86
2022/03/13 00:54:07;;;;;;;22.20;17.73;;;;;;;;;;5058391;28;20045;-85
2022/03/13 00:56:33;;;;;;;22.25;17.50;;;;;;;;;;5039375;28;20096;-86
2022/03/13 00:59:00;;;;;;;23.52;17.73;;;;;;;;;;5058081;28;20430;-86
2022/03/13 01:01:26;;;;;;;22.83;18.67;;;;;;;;;;5039746;28;20130;-86
2022/03/13 01:03:53;;;;;;;21.63;17.02;;;;;;;;;;5040123;28;20041;-86
2022/03/13 01:06:20;;;;;;;27.30;17.50;;;;;;;;;;5040081;28;20060;-86
2022/03/13 01:08:47;;;;;;;23.17;17.70;;;;;;;;;;5040595;28;20096;-86
2022/03/13 01:11:14;;;;;;;24.65;18.50;;;;;;;;;;5023564;28;20045;-86
2022/03/13 01:13:40;;;;;;;24.67;17.25;;;;;;;;;;5039982;28;20037;-86
2022/03/13 01:16:13;;;;;;;22.67;17.88;;;;;;;;;;5023747;28;20082;-86
2022/03/13 01:18:40;;;;;;;23.98;18.17;;;;;;;;;;5024103;28;20056;-86
2022/03/13 01:21:06;;;;;;;24.48;18.55;;;;;;;;;;5077571;28;20047;-84
2022/03/13 01:23:32;;;;;;;22.73;17.20;;;;;;;;;;5045574;28;20065;-85
2022/03/13 01:26:34;;;;;;;23.55;18.13;;;;;;;;;;5045031;28;20045;-84
2022/03/13 01:29:01;;;;;;;27.23;18.85;;;;;;;;;;4990324;28;20049;-87
2022/03/13 01:31:30;;;;;;;21.20;17.60;;;;;;;;;;5040208;28;20036;-86
2022/03/13 01:33:57;;;;;;;24.05;18.02;;;;;;;;;;5023968;28;20044;-86
2022/03/13 01:36:23;;;;;;;21.48;17.95;;;;;;;;;;5039948;28;20048;-86
2022/03/13 01:38:52;;;;;;;22.42;17.58;;;;;;;;;;5040109;28;20040;-86
2022/03/13 01:41:19;;;;;;;21.02;17.13;;;;;;;;;;5039412;28;20068;-86
2022/03/13 01:43:45;;;;;;;23.23;17.15;;;;;;;;;;5039656;28;20067;-85
2022/03/13 01:46:11;;;;;;;23.02;18.05;;;;;;;;;;5022831;28;20100;-86
2022/03/13 01:49:01;;;;;;;22.17;17.63;;;;;;;;;;5022948;28;20077;-86
2022/03/13 01:51:27;;;;;;;23.77;17.63;;;;;;;;;;5027166;28;20049;-86
2022/03/13 01:53:55;;;;;;;25.45;18.27;;;;;;;;;;5039412;28;20096;-86
2022/03/13 01:56:21;;;;;;;24.85;18.05;;;;;;;;;;5022889;28;20087;-86
2022/03/13 01:58:52;;;;;;;22.52;18.20;;;;;;;;;;5038107;28;20060;-86
2022/03/13 02:01:18;;;;;;;23.40;17.10;;;;;;;;;;5032808;28;20033;-84
2022/03/13 02:03:45;;;;;;;25.02;18.75;;;;;;;;;;5044292;28;20029;-84
2022/03/13 02:06:11;;;;;;;23.20;18.40;;;;;;;;;;5044780;28;20025;-84
2022/03/13 02:08:37;;;;;;;24.20;17.98;;;;;;;;;;5032544;28;20041;-86
2022/03/13 02:11:04;;;;;;;22.67;18.00;;;;;;;;;;5040186;28;20078;-86
2022/03/13 02:13:32;;;;;;;22.58;17.48;;;;;;;;;;5023397;28;20052;-86
2022/03/13 02:15:58;;;;;;;26.15;18.75;;;;;;;;;;5039758;28;20049;-86
2022/03/13 02:18:24;;;;;;;22.48;18.48;;;;;;;;;;5056924;28;20053;-86
2022/03/13 02:20:50;;;;;;;23.83;18.23;;;;;;;;;;5057194;28;20525;-86
2022/03/13 02:23:19;;;;;;;22.23;17.98;;;;;;;;;;5022131;28;20036;-86
2022/03/13 02:25:47;;;;;;;24.85;19.13;;;;;;;;;;5056395;28;20040;-86
2022/03/13 02:28:14;;;;;;;21.10;17.25;;;;;;;;;;5056556;28;20045;-86
2022/03/13 02:30:40;;;;;;;23.63;17.80;;;;;;;;;;5021491;28;20041;-86
2022/03/13 02:33:06;;;;;;;25.45;19.42;;;;;;;;;;5021212;28;20052;-86
2022/03/13 02:35:32;;;;;;;22.35;17.67;;;;;;;;;;5038890;28;20041;-85
2022/03/13 02:37:58;;;;;;;22.55;17.50;;;;;;;;;;5038678;28;20132;-86
2022/03/13 02:40:25;;;;;;;22.52;17.50;;;;;;;;;;5038299;28;20045;-85
2022/03/13 02:42:52;;;;;;;25.30;18.65;;;;;;;;;;5056195;28;20041;-86
2022/03/13 02:45:35;;;;;;;23.33;17.90;;;;;;;;;;5021758;28;20052;-86
2022/03/13 02:48:02;;;;;;;22.67;17.27;;;;;;;;;;5038462;28;20109;-86
2022/03/13 02:50:28;;;;;;;24.55;18.23;;;;;;;;;;5021783;28;20500;-86
2022/03/13 02:52:54;;;;;;;21.90;18.17;;;;;;;;;;5037786;28;20055;-85
2022/03/13 02:55:20;;;;;;;23.80;18.27;;;;;;;;;;5038279;28;20041;-86
2022/03/13 02:57:47;;;;;;;23.00;17.65;;;;;;;;;;5038006;28;20437;-86
2022/03/13 03:00:15;;;;;;;24.70;18.63;;;;;;;;;;5021501;28;20052;-86
2022/03/13 03:02:41;;;;;;;23.02;17.70;;;;;;;;;;5037837;28;20037;-86
2022/03/13 03:05:07;;;;;;;21.13;16.60;;;;;;;;;;5021907;28;20124;-86
2022/03/13 03:07:34;;;;;;;23.00;18.70;;;;;;;;;;5021277;28;20037;-86
2022/03/13 03:10:00;;;;;;;21.48;17.52;;;;;;;;;;5021816;28;20495;-86
2022/03/13 03:12:27;;;;;;;22.58;17.48;;;;;;;;;;5019785;28;20052;-86
2022/03/13 03:14:54;;;;;;;22.27;17.60;;;;;;;;;;5008101;28;20041;-85
2022/03/13 03:17:20;;;;;;;22.05;17.33;;;;;;;;;;5021884;28;20045;-86
2022/03/13 03:19:46;;;;;;;21.50;17.10;;;;;;;;;;5020831;28;20100;-86
2022/03/13 03:22:13;;;;;;;25.42;17.45;;;;;;;;;;5039765;28;20037;-86
2022/03/13 03:24:39;;;;;;;22.42;17.92;;;;;;;;;;5025639;28;20037;-86
2022/03/13 03:27:05;;;;;;;21.83;16.85;;;;;;;;;;5042007;28;20491;-85
2022/03/13 03:29:31;;;;;;;21.83;17.33;;;;;;;;;;5041944;28;20098;-85
2022/03/13 03:31:58;;;;;;;22.27;17.63;;;;;;;;;;5041689;28;20498;-85
2022/03/13 03:34:25;;;;;;;24.02;17.13;;;;;;;;;;5042013;28;20049;-86
2022/03/13 03:37:01;;;;;;;21.67;17.85;;;;;;;;;;5041605;28;20674;-86
2022/03/13 03:39:28;;;;;;;21.20;17.10;;;;;;;;;;5041749;28;20170;-86
2022/03/13 03:41:55;;;;;;;25.17;17.60;;;;;;;;;;5024764;28;20136;-86
2022/03/13 03:44:21;;;;;;;23.67;17.33;;;;;;;;;;5025186;28;20037;-86
2022/03/13 03:46:48;;;;;;;23.98;17.48;;;;;;;;;;5042766;28;20040;-86
2022/03/13 03:49:14;;;;;;;23.60;18.40;;;;;;;;;;5041688;28;20079;-85
2022/03/13 03:51:41;;;;;;;23.20;18.45;;;;;;;;;;5025217;28;20035;-86
2022/03/13 03:54:07;;;;;;;24.30;18.42;;;;;;;;;;5041602;28;20037;-85
2022/03/13 03:56:34;;;;;;;22.98;17.27;;;;;;;;;;5024311;28;20048;-86
2022/03/13 03:59:00;;;;;;;24.42;18.83;;;;;;;;;;5041259;28;20099;-87
2022/03/13 04:01:28;;;;;;;28.02;19.63;;;;;;;;;;5040963;28;20080;-86
2022/03/13 04:03:54;;;;;;;24.50;18.30;;;;;;;;;;5040718;28;20431;-85
2022/03/13 04:06:20;;;;;;;23.88;18.20;;;;;;;;;;5024931;28;20043;-86
2022/03/13 04:08:47;;;;;;;27.17;18.55;;;;;;;;;;5041227;28;20518;-86
2022/03/13 04:11:13;;;;;;;23.58;17.33;;;;;;;;;;5029747;28;20062;-86
2022/03/13 04:13:40;;;;;;;26.80;18.83;;;;;;;;;;5045589;28;20072;-87
2022/03/13 04:16:07;;;;;;;25.67;18.90;;;;;;;;;;5025072;28;20060;-86
2022/03/13 04:18:33;;;;;;;24.63;17.75;;;;;;;;;;5024266;28;20094;-85
2022/03/13 04:20:59;;;;;;;20.85;16.65;;;;;;;;;;5040880;28;20518;-86
2022/03/13 04:23:26;;;;;;;24.65;17.92;;;;;;;;;;5039759;28;20041;-85
2022/03/13 04:25:53;;;;;;;25.92;19.15;;;;;;;;;;5039969;28;20399;-86
2022/03/13 04:28:19;;;;;;;22.95;17.75;;;;;;;;;;5039920;28;20052;-86
2022/03/13 04:30:47;;;;;;;26.83;18.75;;;;;;;;;;5039510;28;20045;-86
2022/03/13 04:33:16;;;;;;;24.73;18.38;;;;;;;;;;5022475;28;20514;-86
2022/03/13 04:35:42;;;;;;;23.38;17.95;;;;;;;;;;5039723;28;20049;-86
2022/03/13 04:38:08;;;;;;;23.48;17.95;;;;;;;;;;5039326;28;20036;-86
2022/03/13 04:40:34;;;;;;;25.08;18.20;;;;;;;;;;5038831;28;20049;-85
2022/03/13 04:43:02;;;;;;;26.98;19.60;;;;;;;;;;5022551;28;20056;-86
2022/03/13 04:45:28;;;;;;;25.65;19.10;;;;;;;;;;5060419;28;20028;-84
2022/03/13 04:47:54;;;;;;;23.83;18.73;;;;;;;;;;5061503;28;20117;-84
2022/03/13 04:50:20;;;;;;;25.95;18.25;;;;;;;;;;5062043;28;20033;-85
2022/03/13 04:52:47;;;;;;;23.45;16.77;;;;;;;;;;5044213;28;20129;-86
2022/03/13 04:55:13;;;;;;;24.48;17.95;;;;;;;;;;5022475;28;20049;-86
2022/03/13 04:57:39;;;;;;;23.52;17.60;;;;;;;;;;5038331;28;20045;-86
2022/03/13 05:00:05;;;;;;;25.02;17.90;;;;;;;;;;5039068;28;20067;-85
2022/03/13 05:02:32;;;;;;;23.77;17.35;;;;;;;;;;5022192;28;20128;-86
2022/03/13 05:04:59;;;;;;;24.67;18.55;;;;;;;;;;5039302;28;20033;-86
2022/03/13 05:07:28;;;;;;;25.27;17.60;;;;;;;;;;5022305;28;20499;-86
2022/03/13 05:09:54;;;;;;;23.15;18.15;;;;;;;;;;5038881;28;20053;-86
2022/03/13 05:12:24;;;;;;;23.55;16.80;;;;;;;;;;5038477;28;20099;-86
2022/03/13 05:14:51;;;;;;;24.38;17.75;;;;;;;;;;5038966;28;20053;-85
2022/03/13 05:17:17;;;;;;;21.50;17.48;;;;;;;;;;5022705;28;20068;-86
2022/03/13 05:19:44;;;;;;;22.80;18.23;;;;;;;;;;5021997;28;20041;-85
2022/03/13 05:22:10;;;;;;;24.33;17.70;;;;;;;;;;5038641;28;20094;-86
2022/03/13 05:24:36;;;;;;;21.27;16.38;;;;;;;;;;5022422;28;20128;-86
2022/03/13 05:27:02;;;;;;;22.52;17.15;;;;;;;;;;5039087;28;20036;-86
2022/03/13 05:29:28;;;;;;;24.52;17.67;;;;;;;;;;5038960;28;20576;-86
2022/03/13 05:31:54;;;;;;;22.58;17.95;;;;;;;;;;5056223;28;20045;-86
2022/03/13 05:34:20;;;;;;;24.10;17.98;;;;;;;;;;5038965;28;20059;-85
2022/03/13 05:36:46;;;;;;;22.80;17.33;;;;;;;;;;5022315;28;20119;-86
2022/03/13 05:39:12;;;;;;;24.42;18.05;;;;;;;;;;5021913;28;20041;-86
2022/03/13 05:41:39;;;;;;;23.55;17.67;;;;;;;;;;5038081;28;20509;-86
2022/03/13 05:44:07;;;;;;;22.92;15.82;;;;;;;;;;5021458;28;20040;-86
2022/03/13 05:46:34;;;;;;;22.58;17.17;;;;;;;;;;5022423;28;20037;-85
2022/03/13 05:49:00;;;;;;;23.13;17.48;;;;;;;;;;5056347;28;20472;-86
2022/03/13 05:51:26;;;;;;;22.60;15.30;;;;;;;;;;5055999;28;20049;-86
2022/03/13 05:53:52;;;;;;;23.20;15.90;;;;;;;;;;5021840;28;20044;-86
2022/03/13 05:56:18;;;;;;;20.45;15.27;;;;;;;;;;5038718;28;20499;-86
2022/03/13 05:58:44;;;;;;;22.02;15.98;;;;;;;;;;5021470;28;20044;-86
2022/03/13 06:01:11;;;;;;;20.55;15.40;;;;;;;;;;5038213;28;20450;-86
2022/03/13 06:03:42;;;;;;;19.90;15.20;;;;;;;;;;5000373;28;20034;-86
2022/03/13 06:06:08;;;;;;;22.30;15.60;;;;;;;;;;5019092;28;20124;-84
2022/03/13 06:08:34;;;;;;;22.00;16.40;;;;;;;;;;5001431;28;20076;-85
2022/03/13 06:11:00;;;;;;;21.33;15.95;;;;;;;;;;5005806;28;20041;-85
2022/03/13 06:13:27;;;;;;;18.38;14.18;;;;;;;;;;5009136;28;20168;-84
2022/03/13 06:15:53;;;;;;;19.17;15.75;;;;;;;;;;5031348;28;20041;-87
2022/03/13 06:18:21;;;;;;;19.67;15.32;;;;;;;;;;5015163;28;20128;-86
2022/03/13 06:20:50;;;;;;;21.25;16.25;;;;;;;;;;5027488;28;20042;-86
2022/03/13 06:23:19;;;;;;;23.65;16.08;;;;;;;;;;5023921;28;20120;-85
2022/03/13 06:25:48;;;;;;;19.60;15.23;;;;;;;;;;5003553;28;20048;-85
2022/03/13 06:28:14;;;;;;;20.17;16.38;;;;;;;;;;5019128;28;20056;-85
2022/03/13 06:30:40;;;;;;;18.52;14.48;;;;;;;;;;5001307;28;20048;-85
2022/03/13 06:33:08;;;;;;;20.52;15.32;;;;;;;;;;5019917;28;20132;-86
2022/03/13 06:35:34;;;;;;;19.88;15.32;;;;;;;;;;5000272;28;20084;-86
2022/03/13 06:38:00;;;;;;;18.63;15.13;;;;;;;;;;4996318;28;20037;-85
2022/03/13 06:40:26;;;;;;;20.73;15.10;;;;;;;;;;5005279;28;20048;-85
2022/03/13 06:42:53;;;;;;;18.90;14.95;;;;;;;;;;4987115;28;20151;-85
2022/03/13 06:45:20;;;;;;;25.30;15.57;;;;;;;;;;4989046;28;20084;-85
2022/03/13 06:47:49;;;;;;;23.55;16.50;;;;;;;;;;5013220;28;20044;-85
2022/03/13 06:50:19;;;;;;;22.25;14.82;;;;;;;;;;5011693;28;20092;-85
2022/03/13 06:52:47;;;;;;;20.92;15.05;;;;;;;;;;5026814;28;20105;-84
2022/03/13 06:55:14;;;;;;;20.40;14.60;;;;;;;;;;5004642;28;20041;-87
2022/03/13 06:57:43;;;;;;;23.83;16.23;;;;;;;;;;5031830;28;20491;-86
2022/03/13 07:00:10;;;;;;;20.90;15.73;;;;;;;;;;5016703;28;20060;-86
2022/03/13 07:02:36;;;;;;;19.63;14.75;;;;;;;;;;5016593;28;20041;-86
2022/03/13 07:05:03;;;;;;;20.88;15.55;;;;;;;;;;5033289;28;20411;-87
2022/03/13 07:07:29;;;;;;;19.20;14.68;;;;;;;;;;5033279;28;20067;-87
2022/03/13 07:09:58;;;;;;;21.17;15.00;;;;;;;;;;5026276;28;20029;-85
2022/03/13 07:12:27;;;;;;;19.95;14.70;;;;;;;;;;5016375;28;20032;-85
2022/03/13 07:14:58;;;;;;;20.27;14.38;;;;;;;;;;5025610;28;20185;-85
2022/03/13 07:17:24;;;;;;;18.67;15.27;;;;;;;;;;5021447;28;20045;-84
2022/03/13 07:19:53;;;;;;;19.13;14.30;;;;;;;;;;4983961;28;20042;-84
2022/03/13 07:22:19;;;;;;;21.20;14.63;;;;;;;;;;5003919;28;20029;-85
2022/03/13 07:24:46;;;;;;;17.50;14.27;;;;;;;;;;5004137;28;20386;-87
2022/03/13 07:27:13;;;;;;;17.88;14.68;;;;;;;;;;5003005;28;20120;-85
2022/03/13 07:29:42;;;;;;;17.55;13.73;;;;;;;;;;5029011;28;20054;-84
2022/03/13 07:32:09;;;;;;;18.63;15.05;;;;;;;;;;5031028;28;20029;-83
2022/03/13 07:34:39;;;;;;;19.75;13.77;;;;;;;;;;5035576;28;20048;-86
2022/03/13 07:37:10;;;;;;;20.95;14.40;;;;;;;;;;5002127;28;20045;-86
2022/03/13 07:39:37;;;;;;;16.95;14.07;;;;;;;;;;5016843;28;20049;-86
2022/03/13 07:42:03;;;;;;;16.88;13.68;;;;;;;;;;4995205;28;20490;-86
2022/03/13 07:44:29;;;;;;;19.58;13.75;;;;;;;;;;4988904;28;20037;-86
2022/03/13 07:46:55;;;;;;;20.27;13.95;;;;;;;;;;4979127;28;20447;-86
2022/03/13 07:49:22;;;;;;;19.15;14.25;;;;;;;;;;4986472;28;20030;-86
2022/03/13 07:51:48;;;;;;;15.75;13.15;;;;;;;;;;5007347;28;20041;-85
2022/03/13 07:54:15;;;;;;;18.55;13.02;;;;;;;;;;4991847;28;20496;-85
2022/03/13 07:56:41;;;;;;;17.42;12.32;;;;;;;;;;5004310;28;20412;-86
2022/03/13 07:59:07;;;;;;;17.90;13.15;;;;;;;;;;5008800;28;20033;-86
2022/03/13 08:01:33;;;;;;;14.13;12.57;;;;;;;;;;5002686;28;20045;-85
2022/03/13 08:04:04;;;;;;;15.68;13.20;;;;;;;;;;4997592;28;20528;-84
2022/03/13 08:06:35;;;;;;;19.60;12.98;;;;;;;;;;4992768;28;20273;-86
2022/03/13 08:09:01;;;;;;;18.38;13.45;;;;;;;;;;5000665;28;20037;-86
2022/03/13 08:11:27;;;;;;;15.32;12.88;;;;;;;;;;4990358;28;20488;-86
2022/03/13 08:13:53;;;;;;;15.50;12.90;;;;;;;;;;4987171;28;20056;-85
2022/03/13 08:16:19;;;;;;;14.88;12.20;;;;;;;;;;4994667;28;20046;-85
2022/03/13 08:18:49;;;;;;;17.00;12.75;;;;;;;;;;4996065;28;20072;-85
2022/03/13 08:21:18;;;;;;;15.77;12.98;;;;;;;;;;4995841;28;20272;-85
2022/03/13 08:23:47;;;;;;;17.92;13.60;;;;;;;;;;5012542;28;20118;-86
2022/03/13 08:26:13;;;;;;;17.00;13.07;;;;;;;;;;5011058;28;20045;-86
2022/03/13 08:28:43;;;;;;;15.75;12.40;;;;;;;;;;4996271;28;20055;-86
2022/03/13 08:31:09;;;;;;;17.33;13.32;;;;;;;;;;5010534;28;20071;-86
2022/03/13 08:33:38;;;;;;;15.38;12.23;;;;;;;;;;5003451;28;20053;-89
2022/03/13 08:36:10;;;;;;;15.82;12.30;;;;;;;;;;5044083;28;20056;-88
2022/03/13 08:38:36;;;;;;;16.40;12.73;;;;;;;;;;5009454;28;20046;-87
2022/03/13 08:41:02;;;;;;;16.63;13.02;;;;;;;;;;5022027;28;20045;-88
2022/03/13 08:43:28;;;;;;;14.43;12.10;;;;;;;;;;5036101;28;20041;-87
2022/03/13 08:45:59;;;;;;;16.60;12.70;;;;;;;;;;5016097;28;20053;-87
2022/03/13 08:48:31;;;;;;;13.25;11.57;;;;;;;;;;5017237;28;20044;-86
2022/03/13 08:50:58;;;;;;;14.90;12.30;;;;;;;;;;4996822;28;20037;-86
2022/03/13 08:53:24;;;;;;;14.75;12.75;;;;;;;;;;5001394;28;20083;-86
2022/03/13 08:55:53;;;;;;;14.98;12.35;;;;;;;;;;5016380;28;20038;-87
2022/03/13 08:58:19;;;;;;;14.60;12.25;;;;;;;;;;5000457;28;20088;-87
2022/03/13 09:00:51;;;;;;;14.70;12.90;;;;;;;;;;5031181;28;20073;-87
2022/03/13 09:03:20;;;;;;;16.15;13.63;;;;;;;;;;5041192;28;20037;-88
2022/03/13 09:05:56;;;;;;;14.15;12.73;;;;;;;;;;5039199;28;20065;-89
2022/03/13 09:08:22;;;;;;;14.65;12.77;;;;;;;;;;5020277;28;20048;-88
2022/03/13 09:10:48;;;;;;;15.05;12.05;;;;;;;;;;5007155;28;20041;-86
2022/03/13 09:13:17;;;;;;;13.35;11.90;;;;;;;;;;5005272;28;20385;-87
2022/03/13 09:15:43;;;;;;;13.90;12.20;;;;;;;;;;4997307;28;20045;-87
2022/03/13 09:18:09;;;;;;;19.02;14.63;;;;;;;;;;4984129;28;20030;-87
2022/03/13 09:20:38;;;;;;;14.95;12.35;;;;;;;;;;4995142;28;20526;-86
2022/03/13 09:23:08;;;;;;;15.07;12.52;;;;;;;;;;4996921;28;20045;-87
2022/03/13 09:25:36;;;;;;;14.27;12.77;;;;;;;;;;4998988;28;20037;-87
2022/03/13 09:28:03;;;;;;;14.98;12.77;;;;;;;;;;5018724;28;20083;-87
2022/03/13 09:30:29;;;;;;;15.20;11.93;;;;;;;;;;5018718;28;20052;-87
2022/03/13 09:32:58;;;;;;;15.90;12.77;;;;;;;;;;5034607;28;20044;-86
2022/03/13 09:35:27;;;;;;;16.17;12.77;;;;;;;;;;5035374;28;20545;-86
2022/03/13 09:37:54;;;;;;;16.13;13.30;;;;;;;;;;5034735;28;20045;-86
2022/03/13 09:40:20;;;;;;;14.27;12.80;;;;;;;;;;5002300;28;20132;-86
2022/03/13 09:42:47;;;;;;;14.98;12.57;;;;;;;;;;5006141;28;20518;-86
2022/03/13 09:45:13;;;;;;;14.18;12.68;;;;;;;;;;5000914;28;20076;-86
2022/03/13 09:47:40;;;;;;;14.25;12.70;;;;;;;;;;4985351;28;20397;-87
2022/03/13 09:50:07;;;;;;;14.80;13.15;;;;;;;;;;4995650;28;20049;-87
2022/03/13 09:52:33;;;;;;;14.18;12.70;;;;;;;;;;4996699;28;20052;-86
2022/03/13 09:55:00;;;;;;;15.25;12.43;;;;;;;;;;4997994;28;20331;-86
2022/03/13 09:57:27;;;;;;;13.48;11.88;;;;;;;;;;5011465;28;20119;-87
2022/03/13 09:59:53;;;;;;;14.65;13.02;;;;;;;;;;4998803;28;20048;-87
2022/03/13 10:02:19;;;;;;;14.25;12.75;;;;;;;;;;5009942;28;20044;-87
2022/03/13 10:04:51;;;;;;;14.52;13.02;;;;;;;;;;5003546;28;20050;-86
2022/03/13 10:07:19;;;;;;;16.58;12.27;;;;;;;;;;5018750;28;20037;-88
2022/03/13 10:09:46;;;;;;;15.02;13.15;;;;;;;;;;5031696;28;20088;-88
2022/03/13 10:12:22;;;;;;;17.02;13.38;;;;;;;;;;5004333;28;20041;-87
2022/03/13 10:17:48;;;;;;;14.88;13.23;;;;;;;;;;5042391;28;20114;-90
2022/03/13 10:20:21;;;;;;;15.85;13.40;;;;;;;;;;5039300;28;20416;-87
2022/03/13 10:22:48;;;;;;;14.82;13.00;;;;;;;;;;5014311;28;20120;-88
2022/03/13 10:25:27;;;;;;;14.45;12.52;;;;;;;;;;4996737;28;20037;-87
2022/03/13 10:27:53;;;;;;;13.52;11.95;;;;;;;;;;4997321;28;20038;-86
2022/03/13 10:30:20;;;;;;;15.63;12.93;;;;;;;;;;5013388;28;20116;-87
2022/03/13 10:32:55;;;;;;;14.02;12.48;;;;;;;;;;4997229;28;20042;-85
2022/03/13 10:35:20;;;;;;;15.00;13.40;;;;;;;;;;5013152;28;20403;-87
2022/03/13 10:37:46;;;;;;;15.68;13.73;;;;;;;;;;5008241;28;20045;-86
2022/03/13 10:40:22;;;;;;;14.98;13.48;;;;;;;;;;5014053;28;20046;-87
2022/03/13 10:42:50;;;;;;;16.75;13.35;;;;;;;;;;5013084;28;20122;-83
2022/03/13 10:45:36;;;;;;;14.20;12.80;;;;;;;;;;5015164;28;20041;-89
2022/03/13 10:48:18;;;;;;;14.32;12.63;;;;;;;;;;5013964;28;20059;-88
2022/03/13 10:50:45;;;;;;;14.80;12.70;;;;;;;;;;5023363;28;20206;-87
2022/03/13 10:53:13;;;;;;;16.85;12.30;;;;;;;;;;5010390;28;20041;-88
2022/03/13 10:55:41;;;;;;;14.63;13.07;;;;;;;;;;5002169;28;20037;-90
2022/03/13 10:58:07;;;;;;;14.65;13.25;;;;;;;;;;4998469;28;20041;-86
2022/03/13 11:00:34;;;;;;;13.85;12.40;;;;;;;;;;4998694;28;20041;-89
2022/03/13 11:03:13;;;;;;;15.35;13.73;;;;;;;;;;5002036;28;20500;-89
2022/03/13 11:05:40;;;;;;;15.38;13.77;;;;;;;;;;5010044;28;20037;-90
2022/03/13 11:08:07;;;;;;;14.00;12.70;;;;;;;;;;4999408;28;20037;-90
2022/03/13 11:10:37;;;;;;;14.25;12.85;;;;;;;;;;5022582;28;20075;-89
2022/03/13 11:13:07;;;;;;;19.60;13.02;;;;;;;;;;5046354;28;20041;-92
2022/03/13 11:15:36;;;;;;;14.77;13.25;;;;;;;;;;5015317;28;20518;-90
2022/03/13 11:18:03;;;;;;;15.98;12.98;;;;;;;;;;5017783;28;20056;-88
2022/03/13 11:20:29;;;;;;;14.38;12.95;;;;;;;;;;5017020;28;20037;-89
2022/03/13 11:22:55;;;;;;;14.57;13.07;;;;;;;;;;5012516;28;20029;-88
2022/03/13 11:25:25;;;;;;;14.75;13.25;;;;;;;;;;5009564;28;20041;-90
2022/03/13 11:27:55;;;;;;;13.70;12.35;;;;;;;;;;4994266;28;20408;-90
2022/03/13 11:30:30;;;;;;;14.70;13.20;;;;;;;;;;5014957;28;20129;-89
2022/03/13 11:32:59;;;;;;;14.07;12.65;;;;;;;;;;4986929;28;20041;-89
2022/03/13 11:35:30;;;;;;;13.85;12.48;;;;;;;;;;4997085;28;20454;-88
2022/03/13 11:38:19;;;;;;;13.30;11.93;;;;;;;;;;5015016;28;20077;-92
2022/03/13 11:40:51;;;;;;;15.23;13.82;;;;;;;;;;5012104;28;20050;-95
2022/03/13 11:43:22;;;;;;;14.73;13.20;;;;;;;;;;4999126;28;20408;-91
2022/03/13 11:45:54;;;;;;;15.48;13.13;;;;;;;;;;4995120;28;20041;-90
2022/03/13 11:48:22;;;;;;;15.77;13.90;;;;;;;;;;5026009;28;20080;-82
2022/03/13 11:50:54;;;;;;;14.77;13.18;;;;;;;;;;5037867;28;20045;-89
2022/03/13 11:54:03;;;;;;;15.02;13.43;;;;;;;;;;5001778;28;20518;-93
2022/03/13 11:56:29;;;;;;;14.23;12.82;;;;;;;;;;4993831;28;20049;-89
2022/03/13 11:59:16;;;;;;;14.63;13.13;;;;;;;;;;5018303;28;20041;-91
2022/03/13 12:01:45;;;;;;;14.45;12.90;;;;;;;;;;5006744;28;20037;-90
2022/03/13 12:04:11;;;;;;;14.43;12.73;;;;;;;;;;5030714;28;20040;-91
2022/03/13 12:06:39;;;;;;;14.85;13.35;;;;;;;;;;5012630;28;20112;-91
2022/03/13 12:09:14;;;;;;;14.23;12.93;;;;;;;;;;4996634;28;20034;-90
2022/03/13 12:11:47;;;;;;;14.50;13.10;;;;;;;;;;5007254;28;20065;-89
2022/03/13 12:14:15;;;;;;;14.40;13.00;;;;;;;;;;5046345;28;20085;-89
2022/03/13 12:16:45;;;;;;;14.75;13.25;;;;;;;;;;5008823;28;20077;-89
2022/03/13 12:19:12;;;;;;;13.95;12.60;;;;;;;;;;4996668;28;20038;-90
2022/03/13 12:21:42;;;;;;;14.00;12.73;;;;;;;;;;4998413;28;20045;-90
2022/03/13 12:24:18;;;;;;;14.48;13.10;;;;;;;;;;4999383;28;20103;-89
2022/03/13 12:26:48;;;;;;;14.10;12.68;;;;;;;;;;5025604;28;20046;-89
2022/03/13 12:29:18;;;;;;;13.82;12.43;;;;;;;;;;4989006;28;20481;-88
2022/03/13 12:31:49;;;;;;;15.43;13.18;;;;;;;;;;5024964;28;20054;-89
2022/03/13 12:34:25;;;;;;;14.77;13.30;;;;;;;;;;5017097;28;20045;-87
2022/03/13 12:36:53;;;;;;;13.95;12.55;;;;;;;;;;5018033;28;20514;-89
2022/03/13 12:39:19;;;;;;;17.27;14.02;;;;;;;;;;5017453;28;20034;-87
2022/03/13 12:41:45;;;;;;;14.20;12.70;;;;;;;;;;5016380;28;20213;-89
2022/03/13 12:44:12;;;;;;;14.38;12.85;;;;;;;;;;5032578;28;20034;-88
2022/03/13 12:46:39;;;;;;;14.38;12.88;;;;;;;;;;5033699;28;20064;-90
2022/03/13 12:49:08;;;;;;;13.85;12.45;;;;;;;;;;5032481;28;20046;-88
2022/03/13 12:51:49;;;;;;;15.13;13.18;;;;;;;;;;5022381;28;20034;-89
2022/03/13 12:54:21;;;;;;;14.60;13.00;;;;;;;;;;5025562;28;20056;-90
2022/03/13 12:56:52;;;;;;;14.15;12.73;;;;;;;;;;5025572;28;20042;-89
2022/03/13 12:59:31;;;;;;;14.80;13.18;;;;;;;;;;5005911;28;20076;-89
2022/03/13 13:02:03;;;;;;;14.15;12.73;;;;;;;;;;5038382;28;20073;-89
2022/03/13 13:04:33;;;;;;;13.38;12.07;;;;;;;;;;5038253;28;20461;-90
2022/03/13 13:07:11;;;;;;;13.40;12.00;;;;;;;;;;5002912;28;20134;-90
2022/03/13 13:09:40;;;;;;;14.32;12.93;;;;;;;;;;5002578;28;20044;-90
2022/03/13 13:12:10;;;;;;;13.50;12.20;;;;;;;;;;5013270;28;20558;-91
2022/03/13 13:14:40;;;;;;;13.43;12.13;;;;;;;;;;5002250;28;20026;-89
2022/03/13 13:17:14;;;;;;;13.25;11.73;;;;;;;;;;5031095;28;20109;-90
2022/03/13 13:19:51;;;;;;;13.88;12.48;;;;;;;;;;5006996;28;20240;-89
2022/03/13 13:22:31;;;;;;;13.40;12.15;;;;;;;;;;5005910;28;20042;-89
2022/03/13 13:25:01;;;;;;;14.02;12.73;;;;;;;;;;5044226;28;20044;-90
2022/03/13 13:27:30;;;;;;;12.90;11.55;;;;;;;;;;5026506;28;20041;-89
2022/03/13 13:29:59;;;;;;;12.75;11.52;;;;;;;;;;5015576;28;20033;-87
2022/03/13 13:32:32;;;;;;;12.13;11.05;;;;;;;;;;5024523;28;20045;-89
2022/03/13 13:34:58;;;;;;;;;;;;;;;;;;5017982;28;20029;-90
2022/03/13 13:37:27;;;;;;;12.52;11.32;;;;;;;;;;5021538;28;19948;-89
2022/03/13 13:40:06;;;;;;;11.85;10.65;;;;;;;;;;5023651;28;20076;-88
2022/03/13 13:42:35;;;;;;;13.02;11.60;;;;;;;;;;5024938;28;20037;-89
2022/03/13 13:45:23;;;;;;;12.20;11.07;;;;;;;;;;5007176;28;20094;-90
2022/03/13 13:47:52;;;;;;;11.27;10.35;;;;;;;;;;5010824;28;20049;-89
2022/03/13 13:50:27;;;;;;;11.20;10.20;;;;;;;;;;5016175;28;20045;-88
2022/03/13 13:56:48;;;;;;;11.55;10.45;;;;;;;;;;4914551;28;20046;-88
2022/03/13 13:59:24;;;;;;;11.35;10.35;;;;;;;;;;4952111;28;20406;-89
2022/03/13 14:02:14;;;;;;;11.65;10.55;;;;;;;;;;4956860;28;20071;-88
2022/03/13 14:04:52;;;;;;;11.20;10.10;;;;;;;;;;5003704;28;20167;-87
2022/03/13 14:07:19;;;;;;;11.55;10.40;;;;;;;;;;5036875;28;20037;-89
2022/03/13 14:09:48;;;;;;;12.07;10.88;;;;;;;;;;5015337;28;20053;-89
2022/03/13 14:12:17;;;;;;;12.38;11.18;;;;;;;;;;5001263;28;20044;-88
2022/03/13 14:14:43;;;;;;;11.88;10.65;;;;;;;;;;5005687;28;20051;-89
2022/03/13 14:17:09;;;;;;;11.07;10.02;;;;;;;;;;5022438;28;20155;-89
2022/03/13 14:19:39;;;;;;;10.93;9.90;;;;;;;;;;5020802;28;20041;-89
2022/03/13 14:22:08;;;;;;;11.35;10.32;;;;;;;;;;5003867;28;20128;-89
2022/03/13 14:24:35;;;;;;;12.13;10.98;;;;;;;;;;5003952;28;20037;-88
2022/03/13 14:27:04;;;;;;;11.85;10.70;;;;;;;;;;5039224;28;20020;-86
2022/03/13 14:29:30;;;;;;;12.32;11.23;;;;;;;;;;5047189;28;20322;-86
2022/03/13 14:31:56;;;;;;;11.75;10.57;;;;;;;;;;5041416;28;20051;-88